Time;durP1;ratioP1;P1;durP2;ratioP2;P2;SDS_P1;SDS_P2;PMS_P1;PMS_P2;Temp;Humidity;BMP_temperature;BMP_pressure;BME280_temperature;BME280_humidity;BME280_pressure;Samples;Min_cycle;Max_cycle;Signal;HPM_P1;HPM_P2
2022/08/18 00:01:44;;;;;;;;;;;;;;;19.65;54.14;99428.69;5031989;28;19929;-87
2022/08/18 00:04:12;;;;;;;;;;;;;;;19.68;54.41;99447.28;5014710;28;19939;-86
2022/08/18 00:06:59;;;;;;;;;;;;;;;19.65;54.47;99445.91;5031963;28;20031;-85
2022/08/18 00:09:26;;;;;;;;;;;;;;;19.68;54.48;99439.06;5032011;28;19940;-87
2022/08/18 00:11:59;;;;;;;;;;;;;;;19.64;54.41;99449.75;5031672;28;19929;-87
2022/08/18 00:14:26;;;;;;;;;;;;;;;19.62;54.49;99446.50;5014175;28;19933;-86
2022/08/18 00:16:53;;;;;;;;;;;;;;;19.64;54.62;99457.16;5031970;28;20307;-87
2022/08/18 00:19:21;;;;;;;;;;;;;;;19.68;54.70;99453.56;5030924;28;20399;-86
2022/08/18 00:22:09;;;;;;;;;;;;;;;19.65;54.95;99450.59;5030660;28;19929;-87
2022/08/18 00:24:41;;;;;;;;;;;;;;;19.56;55.15;99450.41;5031785;28;19929;-85
2022/08/18 00:27:20;;;;;;;;;;;;;;;19.51;55.29;99447.72;5031641;28;20403;-86
2022/08/18 00:29:50;;;;;;;;;;;;;;;19.46;55.50;99443.13;5030442;28;19929;-86
2022/08/18 00:32:18;;;;;;;;;;;;;;;19.40;55.72;99451.72;5029131;28;19987;-87
2022/08/18 00:34:45;;;;;;;;;;;;;;;19.35;55.99;99447.13;5031496;28;19933;-87
2022/08/18 00:37:12;;;;;;;;;;;;;;;19.32;56.24;99453.19;5031526;28;19976;-86
2022/08/18 00:39:39;;;;;;;;;;;;;;;19.26;56.52;99454.31;5065798;28;19975;-86
2022/08/18 00:42:14;;;;;;;;;;;;;;;19.21;56.68;99448.91;5071992;28;20475;-86
2022/08/18 00:44:58;;;;;;;;;;;;;;;19.18;56.72;99454.97;5072051;28;19978;-86
2022/08/18 00:47:28;;;;;;;;;;;;;;;19.13;57.13;99455.84;5070341;28;20031;-87
2022/08/18 00:50:28;;;;;;;;;;;;;;;19.14;57.06;99453.91;5071344;28;19961;-86
2022/08/18 00:52:57;;;;;;;;;;;;;;;19.16;57.10;99449.78;5070693;28;19967;-86
2022/08/18 00:55:29;;;;;;;;;;;;;;;19.16;57.18;99454.44;5071841;28;19929;-87
2022/08/18 00:58:00;;;;;;;;;;;;;;;19.13;57.30;99449.56;5072003;28;19939;-84
2022/08/18 01:00:27;;;;;;;;;;;;;;;19.07;57.30;99451.53;5070961;28;20132;-87
2022/08/18 01:02:55;;;;;;;;;;;;;;;19.02;57.63;99446.94;5073610;28;20383;-86
2022/08/18 01:05:32;;;;;;;;;;;;;;;18.99;58.01;99452.97;5072294;28;19986;-87
2022/08/18 01:07:59;;;;;;;;;;;;;;;18.94;58.16;99453.03;5070273;28;20393;-87
2022/08/18 01:10:26;;;;;;;;;;;;;;;18.89;58.31;99452.25;5055101;28;20365;-86
2022/08/18 01:12:55;;;;;;;;;;;;;;;18.83;58.45;99456.97;5073521;28;19928;-86
2022/08/18 01:15:22;;;;;;;;;;;;;;;18.82;58.47;99452.59;5073340;28;20335;-87
2022/08/18 01:23:57;;;;;;;;;;;;;;;18.76;58.52;99459.22;5033104;28;19933;-87
2022/08/18 01:26:24;;;;;;;;;;;;;;;18.73;58.74;99457.03;5032261;28;19936;-86
2022/08/18 01:28:52;;;;;;;;;;;;;;;18.67;59.00;99452.72;5000613;28;20392;-86
2022/08/18 01:31:30;;;;;;;;;;;;;;;18.61;59.35;99451.94;5032940;28;19983;-88
2022/08/18 01:33:57;;;;;;;;;;;;;;;18.62;59.36;99459.03;5032143;28;20403;-86
2022/08/18 01:36:24;;;;;;;;;;;;;;;18.62;59.31;99457.13;5032938;28;19987;-87
2022/08/18 01:38:52;;;;;;;;;;;;;;;18.61;59.18;99455.50;5032975;28;20202;-87
2022/08/18 01:41:20;;;;;;;;;;;;;;;18.61;59.37;99452.75;5034848;28;19929;-85
2022/08/18 01:43:57;;;;;;;;;;;;;;;18.61;59.50;99452.75;5033796;28;19967;-84
2022/08/18 01:46:25;;;;;;;;;;;;;;;18.58;59.49;99453.34;5010225;28;19930;-86
2022/08/18 01:48:52;;;;;;;;;;;;;;;18.53;59.47;99453.34;4960709;28;19933;-86
2022/08/18 01:51:20;;;;;;;;;;;;;;;18.48;59.81;99453.41;4992876;28;19929;-86
2022/08/18 01:54:06;;;;;;;;;;;;;;;18.45;59.89;99461.34;4977111;28;19929;-86
2022/08/18 01:56:33;;;;;;;;;;;;;;;18.44;60.06;99462.47;4996402;28;19969;-87
2022/08/18 01:59:00;;;;;;;;;;;;;;;18.42;60.40;99470.94;4994066;28;19980;-87
2022/08/18 02:01:27;;;;;;;;;;;;;;;18.41;60.40;99477.53;5034165;28;19937;-87
2022/08/18 02:04:03;;;;;;;;;;;;;;;18.35;60.84;99471.25;5032601;28;19968;-86
2022/08/18 02:06:50;;;;;;;;;;;;;;;18.29;60.81;99483.34;5032739;28;19929;-86
2022/08/18 02:09:17;;;;;;;;;;;;;;;18.24;60.73;99477.09;5034205;28;19968;-86
2022/08/18 02:11:50;;;;;;;;;;;;;;;18.24;60.94;99482.56;5033884;28;20011;-87
2022/08/18 02:14:22;;;;;;;;;;;;;;;18.21;61.08;99488.59;5034205;28;19936;-87
2022/08/18 02:16:56;;;;;;;;;;;;;;;18.24;61.31;99488.03;5033607;28;19969;-85
2022/08/18 02:19:32;;;;;;;;;;;;;;;18.26;61.30;99491.28;5033841;28;19929;-86
2022/08/18 02:21:59;;;;;;;;;;;;;;;18.25;61.29;99495.91;5033457;28;19929;-86
2022/08/18 02:24:26;;;;;;;;;;;;;;;18.22;61.47;99503.88;5033971;28;19983;-86
2022/08/18 02:26:53;;;;;;;;;;;;;;;18.19;61.46;99494.31;5035894;28;20039;-87
2022/08/18 02:29:20;;;;;;;;;;;;;;;18.19;61.61;99491.59;5053126;28;19929;-86
2022/08/18 02:31:47;;;;;;;;;;;;;;;18.18;61.58;99485.31;5052675;28;19979;-87
2022/08/18 02:34:15;;;;;;;;;;;;;;;18.17;61.66;99491.88;5053907;28;20383;-87
2022/08/18 02:36:42;;;;;;;;;;;;;;;18.19;61.68;99495.13;5053593;28;19928;-86
2022/08/18 02:39:12;;;;;;;;;;;;;;;18.17;61.46;99500.06;5053929;28;19979;-86
2022/08/18 02:41:39;;;;;;;;;;;;;;;18.17;61.66;99491.88;5052086;28;19929;-86
2022/08/18 02:44:06;;;;;;;;;;;;;;;18.21;61.83;99494.88;5053060;28;20474;-87
2022/08/18 02:46:34;;;;;;;;;;;;;;;18.22;61.77;99495.69;5052063;28;19935;-86
2022/08/18 02:49:01;;;;;;;;;;;;;;;18.26;61.93;99496.75;5052530;28;20410;-86
2022/08/18 02:51:28;;;;;;;;;;;;;;;18.32;61.71;99495.59;5041411;28;19968;-87
2022/08/18 02:53:57;;;;;;;;;;;;;;;18.35;61.57;99490.38;5032830;28;19929;-87
2022/08/18 02:56:26;;;;;;;;;;;;;;;18.37;61.58;99495.56;5032032;28;20338;-86
2022/08/18 02:59:15;;;;;;;;;;;;;;;18.41;61.50;99494.72;5032671;28;19929;-87
2022/08/18 03:01:45;;;;;;;;;;;;;;;18.45;61.44;99494.16;5032864;28;19929;-88
2022/08/18 03:04:13;;;;;;;;;;;;;;;18.47;61.43;99492.78;5051549;28;19932;-87
2022/08/18 03:06:40;;;;;;;;;;;;;;;18.49;61.40;99493.31;5052696;28;19929;-86
2022/08/18 03:09:08;;;;;;;;;;;;;;;18.50;61.28;99492.19;5052399;28;19939;-86
2022/08/18 03:11:35;;;;;;;;;;;;;;;18.53;61.42;99488.06;5039069;28;20409;-86
2022/08/18 03:14:04;;;;;;;;;;;;;;;18.55;61.34;99494.88;5032400;28;19929;-86
2022/08/18 03:16:31;;;;;;;;;;;;;;;18.54;61.32;99487.78;5034669;28;19929;-86
2022/08/18 03:18:59;;;;;;;;;;;;;;;18.57;61.18;99486.41;5045393;28;20387;-87
2022/08/18 03:21:27;;;;;;;;;;;;;;;18.61;61.06;99492.94;5052415;28;19974;-86
2022/08/18 03:23:55;;;;;;;;;;;;;;;18.62;61.07;99494.56;5047007;28;20007;-86
2022/08/18 03:26:27;;;;;;;;;;;;;;;18.64;61.11;99489.63;5032545;28;20063;-87
2022/08/18 03:28:56;;;;;;;;;;;;;;;18.68;61.12;99490.69;5032029;28;19935;-87
2022/08/18 03:31:30;;;;;;;;;;;;;;;18.72;60.95;99483.53;5032707;28;19955;-86
2022/08/18 03:33:57;;;;;;;;;;;;;;;18.76;60.77;99483.81;5031974;28;20122;-86
2022/08/18 03:36:30;;;;;;;;;;;;;;;18.79;60.73;99483.25;5040262;28;19952;-86
2022/08/18 03:38:58;;;;;;;;;;;;;;;18.79;60.72;99486.81;5048123;28;19933;-90
2022/08/18 03:41:25;;;;;;;;;;;;;;;18.82;60.68;99482.69;5042542;28;20414;-87
2022/08/18 03:44:13;;;;;;;;;;;;;;;18.91;60.50;99480.94;5042648;28;19988;-88
2022/08/18 03:46:41;;;;;;;;;;;;;;;18.91;60.50;99482.84;5052024;28;19929;-87
2022/08/18 03:49:08;;;;;;;;;;;;;;;18.88;60.54;99495.19;5034461;28;20405;-87
2022/08/18 03:51:35;;;;;;;;;;;;;;;18.87;60.71;99490.03;5030942;28;19929;-88
2022/08/18 03:54:03;;;;;;;;;;;;;;;18.93;60.53;99497.88;4690454;28;10000411;-92
2022/08/18 03:56:32;;;;;;;;;;;;;;;19.05;60.21;99500.25;5038799;28;19929;-92
2022/08/18 03:59:03;;;;;;;;;;;;;;;19.16;60.12;99498.22;5056644;28;20130;-89
2022/08/18 04:01:41;;;;;;;;;;;;;;;19.25;59.82;99499.22;5055364;28;20287;-91
2022/08/18 04:04:14;;;;;;;;;;;;;;;19.35;59.50;99495.56;5055641;28;19978;-88
2022/08/18 04:06:42;;;;;;;;;;;;;;;19.45;59.28;99500.91;5056823;28;19928;-90
2022/08/18 04:09:10;;;;;;;;;;;;;;;19.52;59.13;99500.56;5056493;28;19935;-91
2022/08/18 04:11:37;;;;;;;;;;;;;;;19.55;59.04;99506.28;5048642;28;19929;-89
2022/08/18 04:14:04;;;;;;;;;;;;;;;19.61;58.98;99507.03;4700709;28;10000429;-90
2022/08/18 04:16:32;;;;;;;;;;;;;;;19.68;58.63;99505.59;5059301;28;19935;-92
2022/08/18 04:19:02;;;;;;;;;;;;;;;19.78;58.58;99506.59;5055204;28;19929;-90
2022/08/18 04:21:33;;;;;;;;;;;;;;;19.85;58.37;99499.63;5072250;28;19928;-93
2022/08/18 04:24:09;;;;;;;;;;;;;;;19.92;58.25;99504.75;5072593;28;19982;-93
2022/08/18 04:26:37;;;;;;;;;;;;;;;19.97;58.08;99503.88;5072695;28;20297;-92
2022/08/18 04:29:05;;;;;;;;;;;;;;;20.05;57.99;99505.94;5073036;28;19928;-92
2022/08/18 04:31:32;;;;;;;;;;;;;;;20.14;57.70;99509.66;5070746;28;19929;-93
2022/08/18 04:33:59;;;;;;;;;;;;;;;20.27;57.24;99514.38;5054917;28;19928;-93
2022/08/18 04:36:27;;;;;;;;;;;;;;;20.38;57.11;99522.47;5070586;28;20301;-93
2022/08/18 04:38:55;;;;;;;;;;;;;;;20.54;56.84;99512.91;5059993;28;19951;-92
2022/08/18 04:41:26;;;;;;;;;;;;;;;20.69;56.00;99520.91;5079605;28;20390;-92
2022/08/18 04:43:54;;;;;;;;;;;;;;;20.80;55.59;99520.75;5076687;28;19935;-92
2022/08/18 04:46:21;;;;;;;;;;;;;;;20.86;55.20;99511.31;5074931;28;19928;-91
2022/08/18 04:48:50;;;;;;;;;;;;;;;20.96;54.80;99522.94;5076482;28;19928;-92
2022/08/18 04:51:18;;;;;;;;;;;;;;;21.04;54.34;99523.34;5055434;28;19933;-92
2022/08/18 04:54:05;;;;;;;;;;;;;;;21.14;54.19;99515.78;5058091;28;20428;-94
2022/08/18 04:56:35;;;;;;;;;;;;;;;21.21;54.01;99527.16;5077327;28;20386;-93
2022/08/18 04:59:05;;;;;;;;;;;;;;;21.30;53.87;99531.97;5061385;28;19928;-93
2022/08/18 05:01:34;;;;;;;;;;;;;;;21.40;53.68;99532.59;5058109;28;19940;-94
2022/08/18 05:04:01;;;;;;;;;;;;;;;21.46;53.17;99519.59;5059244;28;19928;-94
2022/08/18 05:06:28;;;;;;;;;;;;;;;21.49;52.87;99521.72;5029775;28;19937;-93
2022/08/18 05:08:56;;;;;;;;;;;;;;;21.52;52.69;99523.88;5022586;28;19933;-92
2022/08/18 05:11:24;;;;;;;;;;;;;;;21.51;52.40;99530.47;5016534;28;19928;-92
2022/08/18 05:13:51;;;;;;;;;;;;;;;21.54;52.24;99534.53;5030211;28;19941;-93
2022/08/18 05:16:18;;;;;;;;;;;;;;;21.60;52.36;99530.59;5022663;28;19933;-89
2022/08/18 05:18:53;;;;;;;;;;;;;;;21.70;51.87;99529.56;5038660;28;19929;-91
2022/08/18 05:21:21;;;;;;;;;;;;;;;21.74;51.96;99536.06;5049529;28;19960;-91
2022/08/18 05:23:50;;;;;;;;;;;;;;;21.77;51.86;99536.25;5038420;28;19975;-93
2022/08/18 05:26:18;;;;;;;;;;;;;;;21.80;51.68;99534.84;5054276;28;19937;-90
2022/08/18 05:28:45;;;;;;;;;;;;;;;21.83;51.64;99528.75;5052106;28;19967;-91
2022/08/18 05:31:14;;;;;;;;;;;;;;;21.89;51.68;99538.50;5044000;28;19933;-92
2022/08/18 05:33:41;;;;;;;;;;;;;;;21.92;51.57;99539.81;5048738;28;19956;-92
2022/08/18 05:36:17;;;;;;;;;;;;;;;21.94;51.43;99534.84;5046457;28;19934;-88
2022/08/18 05:38:50;;;;;;;;;;;;;;;22.01;51.34;99532.50;5050978;28;19983;-90
2022/08/18 05:41:32;;;;;;;;;;;;;;;22.12;50.97;99536.63;5043988;28;19943;-92
2022/08/18 05:43:59;;;;;;;;;;;;;;;22.11;50.81;99539.72;4677740;28;10000082;-90
2022/08/18 05:46:53;;;;;;;;;;;;;;;22.21;50.46;99534.03;5036968;28;19932;-93
2022/08/18 05:49:20;;;;;;;;;;;;;;;22.34;49.93;99530.41;5027747;28;20023;-91
2022/08/18 05:51:48;;;;;;;;;;;;;;;22.30;49.83;99529.41;5034667;28;19929;-90
2022/08/18 05:57:02;;;;;;;;;;;;;;;22.45;49.73;99534.53;5041915;28;19936;-86
2022/08/18 05:59:31;;;;;;;;;;;;;;;22.61;49.30;99534.19;5031785;28;19975;-88
2022/08/18 06:01:59;;;;;;;;;;;;;;;22.72;49.23;99543.84;5049481;28;19932;-89
2022/08/18 06:04:53;;;;;;;;;;;;;;;22.78;48.98;99541.75;4661614;28;10000297;-91
2022/08/18 06:07:25;;;;;;;;;;;;;;;22.92;48.55;99542.53;5039599;28;19932;-88
2022/08/18 06:10:09;;;;;;;;;;;;;;;23.13;48.28;99537.34;5042176;28;19982;-87
2022/08/18 06:12:43;;;;;;;;;;;;;;;23.22;47.83;99534.63;5048423;28;19929;-86
2022/08/18 06:15:23;;;;;;;;;;;;;;;23.28;47.99;99539.69;5048410;28;19929;-87
2022/08/18 06:17:54;;;;;;;;;;;;;;;23.40;47.65;99541.06;5048064;28;19982;-89
2022/08/18 06:20:21;;;;;;;;;;;;;;;23.52;47.78;99541.25;5040250;28;20402;-88
2022/08/18 06:23:00;;;;;;;;;;;;;;;23.52;47.70;99539.31;5042791;28;19933;-87
2022/08/18 06:25:33;;;;;;;;;;;;;;;23.58;47.68;99542.75;5038611;28;19933;-86
2022/08/18 06:28:01;;;;;;;;;;;;;;;23.65;47.57;99542.25;5031841;28;19937;-86
2022/08/18 06:30:31;;;;;;;;;;;;;;;23.75;47.75;99542.84;5037828;28;19933;-85
2022/08/18 06:33:01;;;;;;;;;;;;;;;23.87;47.34;99556.00;5029956;28;20399;-86
2022/08/18 06:35:29;;;;;;;;;;;;;;;23.97;47.43;99550.19;5029878;28;19929;-86
2022/08/18 06:41:01;;;;;;;;;;;;;;;24.17;46.94;99551.53;5031990;28;20336;-89
2022/08/18 06:43:28;;;;;;;;;;;;;;;24.23;46.96;99550.25;5037879;28;19933;-90
2022/08/18 06:45:55;;;;;;;;;;;;;;;24.36;46.56;99561.47;5028057;28;20435;-88
2022/08/18 06:48:28;;;;;;;;;;;;;;;24.39;46.48;99553.34;5027723;28;20422;-87
2022/08/18 06:50:57;;;;;;;;;;;;;;;24.44;46.49;99557.91;5027450;28;19932;-86
2022/08/18 06:53:43;;;;;;;;;;;;;;;24.53;46.38;99557.91;5036878;28;19939;-87
2022/08/18 06:59:24;;;;;;;;;;;;;;;24.82;45.70;99554.53;5160562;27;19972;-86
2022/08/18 07:01:53;;;;;;;;;;;;;;;24.93;45.42;99555.78;5125373;28;19928;-88
2022/08/18 07:04:32;;;;;;;;;;;;;;;25.11;44.82;99553.81;5078709;28;20027;-86
2022/08/18 07:07:00;;;;;;;;;;;;;;;25.18;44.72;99561.63;5125206;27;20457;-88
2022/08/18 07:09:32;;;;;;;;;;;;;;;25.39;44.17;99559.78;5123299;28;20031;-90
2022/08/18 07:12:05;;;;;;;;;;;;;;;25.57;43.90;99557.75;5110258;27;19928;-87
2022/08/18 07:15:02;;;;;;;;;;;;;;;25.77;42.87;99561.75;5117305;27;19949;-89
2022/08/18 07:17:32;;;;;;;;;;;;;;;25.87;42.31;99552.28;5029540;28;19930;-87
2022/08/18 07:20:23;;;;;;;;;;;;;;;25.85;42.00;99560.09;5024325;28;19933;-87
2022/08/18 07:22:53;;;;;;;;;;;;;;;26.01;41.91;99560.38;5030597;28;20444;-88
2022/08/18 07:25:24;;;;;;;;;;;;;;;26.11;41.25;99568.28;5023250;28;19929;-87
2022/08/18 07:27:54;;;;;;;;;;;;;;;26.29;41.16;99563.44;5026956;28;19929;-84
2022/08/18 07:30:22;;;;;;;;;;;;;;;26.28;40.89;99562.63;5008750;28;19956;-87
2022/08/18 07:33:15;;;;;;;;;;;;;;;26.27;40.94;99569.31;5021941;28;19929;-88
2022/08/18 07:35:53;;;;;;;;;;;;;;;26.34;41.14;99561.28;5005199;28;19936;-88
2022/08/18 07:38:37;;;;;;;;;;;;;;;26.45;40.88;99561.69;5005300;28;20422;-88
2022/08/18 07:41:19;;;;;;;;;;;;;;;26.67;40.50;99557.81;5006300;28;20028;-88
2022/08/18 07:43:51;;;;;;;;;;;;;;;26.74;40.36;99563.63;5014845;28;19936;-88
2022/08/18 07:46:20;;;;;;;;;;;;;;;26.75;40.41;99561.66;5012084;28;19937;-89
2022/08/18 07:48:48;;;;;;;;;;;;;;;26.82;40.02;99558.34;5034931;28;19929;-89
2022/08/18 07:51:17;;;;;;;;;;;;;;;26.94;40.08;99556.44;5028085;28;19929;-88
2022/08/18 07:53:51;;;;;;;;;;;;;;;27.12;39.50;99562.59;5057748;28;20349;-87
2022/08/18 07:56:21;;;;;;;;;;;;;;;27.25;38.93;99554.34;5105086;28;20317;-88
2022/08/18 07:59:01;;;;;;;;;;;;;;;27.12;38.88;99554.28;5069593;28;19934;-88
2022/08/18 08:01:34;;;;;;;;;;;;;;;27.17;38.86;99562.38;5102689;28;19928;-87
2022/08/18 08:04:30;;;;;;;;;;;;;;;27.33;38.48;99547.91;5069662;28;19935;-88
2022/08/18 08:07:08;;;;;;;;;;;;;;;27.52;37.74;99550.13;5095707;28;19928;-88
2022/08/18 08:09:55;;;;;;;;;;;;;;;27.79;38.09;99559.72;5080547;28;20014;-87
2022/08/18 08:12:22;;;;;;;;;;;;;;;27.95;37.44;99560.66;5082855;28;19928;-87
2022/08/18 08:14:59;;;;;;;;;;;;;;;28.12;36.85;99553.28;5076759;28;20002;-87
2022/08/18 08:17:35;;;;;;;;;;;;;;;28.24;36.69;99554.06;5056134;28;19955;-88
2022/08/18 08:20:21;;;;;;;;;;;;;;;28.49;35.92;99554.84;5089095;28;19963;-87
2022/08/18 08:22:58;;;;;;;;;;;;;;;28.81;35.80;99554.94;5103563;28;19928;-88
2022/08/18 08:25:30;;;;;;;;;;;;;;;29.10;35.60;99556.59;5056238;28;19954;-85
2022/08/18 08:28:35;;;;;;;;;;;;;;;29.29;34.48;99549.53;5072156;28;19936;-85
2022/08/18 08:31:08;;;;;;;;;;;;;;;29.39;34.28;99558.16;5073254;28;20409;-87
2022/08/18 08:34:06;;;;;;;;;;;;;;;29.56;33.61;99553.41;5094305;28;19928;-86
2022/08/18 08:36:34;;;;;;;;;;;;;;;29.67;33.97;99554.50;5064869;28;19934;-84
2022/08/18 08:39:22;;;;;;;;;;;;;;;29.96;33.39;99556.03;5055790;28;20353;-84
2022/08/18 08:41:53;;;;;;;;;;;;;;;30.29;32.64;99551.22;5069523;28;20026;-86
2022/08/18 08:44:46;;;;;;;;;;;;;;;30.53;32.29;99547.34;5074617;28;19927;-87
2022/08/18 08:47:28;;;;;;;;;;;;;;;30.66;31.81;99543.25;5099975;28;20014;-86
2022/08/18 08:49:56;;;;;;;;;;;;;;;31.01;31.22;99548.75;5109895;28;19934;-86
2022/08/18 08:52:44;;;;;;;;;;;;;;;31.18;31.10;99539.13;5060203;28;19927;-85
2022/08/18 08:55:14;;;;;;;;;;;;;;;31.28;30.53;99534.91;5110023;28;20027;-86
2022/08/18 08:57:54;;;;;;;;;;;;;;;31.42;30.53;99535.19;5101787;28;20018;-84
2022/08/18 09:00:21;;;;;;;;;;;;;;;31.66;29.84;99538.78;5069277;28;19932;-86
2022/08/18 09:03:06;;;;;;;;;;;;;;;31.96;29.50;99527.72;5078485;28;19928;-85
2022/08/18 09:05:36;;;;;;;;;;;;;;;32.16;28.87;99534.78;5063888;28;19931;-85
2022/08/18 09:08:06;;;;;;;;;;;;;;;32.31;28.30;99540.56;5065370;28;19928;-83
2022/08/18 09:10:38;;;;;;;;;;;;;;;32.42;27.96;99532.34;5071283;28;19928;-85
2022/08/18 09:13:05;;;;;;;;;;;;;;;32.49;27.62;99532.47;5092311;28;19985;-83
2022/08/18 09:15:53;;;;;;;;;;;;;;;32.72;27.32;99541.53;5092608;28;19928;-82
2022/08/18 09:18:43;;;;;;;;;;;;;;;32.78;27.42;99516.84;5093112;28;20030;-83
2022/08/18 09:21:30;;;;;;;;;;;;;;;32.55;27.14;99540.13;5088698;28;20027;-84
2022/08/18 09:24:05;;;;;;;;;;;;;;;32.70;27.01;99534.72;5057618;28;19983;-83
2022/08/18 09:26:51;;;;;;;;;;;;;;;33.01;26.96;99534.25;5092741;28;19928;-83
2022/08/18 09:29:29;;;;;;;;;;;;;;;33.46;26.49;99523.16;5090960;28;19928;-80
2022/08/18 09:32:18;;;;;;;;;;;;;;;33.44;26.20;99531.13;5070853;28;19989;-81
2022/08/18 09:35:03;;;;;;;;;;;;;;;33.60;26.24;99530.88;5094927;28;19938;-82
2022/08/18 09:44:20;;;;;;;;;;;;;;;33.75;25.59;99532.59;5076814;28;20034;-83
2022/08/18 09:46:54;;;;;;;;;;;;;;;33.62;25.68;99534.09;5074177;28;20031;-83
2022/08/18 09:49:23;;;;;;;;;;;;;;;33.83;25.46;99514.69;5070394;28;20388;-82
2022/08/18 09:52:20;;;;;;;;;;;;;;;34.40;24.99;99525.44;5059698;28;20050;-83
2022/08/18 09:54:56;;;;;;;;;;;;;;;34.94;24.38;99523.66;5075057;28;20415;-84
2022/08/18 09:57:29;;;;;;;;;;;;;;;35.12;24.01;99518.13;5095016;28;20027;-83
2022/08/18 10:00:11;;;;;;;;;;;;;;;35.02;23.80;99523.66;5056420;28;19940;-84
2022/08/18 10:02:40;;;;;;;;;;;;;;;35.09;23.66;99520.91;5089193;28;19932;-83
2022/08/18 10:05:28;;;;;;;;;;;;;;;35.15;23.63;99527.72;5071271;28;19932;-82
2022/08/18 10:08:15;;;;;;;;;;;;;;;35.21;23.85;99520.53;5065094;28;20275;-83
2022/08/18 10:10:54;;;;;;;;;;;;;;;35.24;23.39;99510.50;5082408;28;19963;-84
2022/08/18 10:13:37;;;;;;;;;;;;;;;35.39;23.53;99515.72;5093037;28;20149;-83
2022/08/18 10:16:17;;;;;;;;;;;;;;;35.67;23.17;99521.75;5102409;28;19951;-84
2022/08/18 10:18:49;;;;;;;;;;;;;;;34.72;23.62;99513.59;5084300;28;20027;-83
2022/08/18 10:21:27;;;;;;;;;;;;;;;34.37;24.09;99515.00;5050192;28;20297;-84
2022/08/18 10:24:02;;;;;;;;;;;;;;;33.98;24.22;99507.19;5082344;28;19938;-82
2022/08/18 10:26:55;;;;;;;;;;;;;;;34.80;23.51;99511.59;5068670;28;19934;-82
2022/08/18 10:29:31;;;;;;;;;;;;;;;35.50;22.69;99515.75;5048255;28;19935;-84
2022/08/18 10:31:58;;;;;;;;;;;;;;;35.80;22.21;99500.47;5062993;28;19935;-83
2022/08/18 10:34:40;;;;;;;;;;;;;;;35.98;21.90;99506.06;5082712;28;19970;-83
2022/08/18 10:37:24;;;;;;;;;;;;;;;36.02;21.94;99507.66;5111550;28;19928;-85
2022/08/18 10:40:09;;;;;;;;;;;;;;;36.17;21.89;99502.06;5092789;28;19938;-85
2022/08/18 10:42:59;;;;;;;;;;;;;;;35.89;21.25;99505.69;5075691;28;19979;-83
2022/08/18 10:45:36;;;;;;;;;;;;;;;35.81;21.02;99513.34;5075974;28;20527;-83
2022/08/18 10:48:13;;;;;;;;;;;;;;;36.04;20.61;99498.84;5087379;28;20297;-85
2022/08/18 10:50:50;;;;;;;;;;;;;;;36.15;20.20;99502.44;5115392;27;19935;-85
2022/08/18 10:53:24;;;;;;;;;;;;;;;36.55;20.18;99491.84;5090029;28;19939;-83
2022/08/18 10:56:11;;;;;;;;;;;;;;;36.78;19.86;99485.75;5061146;28;19927;-84
2022/08/18 10:58:55;;;;;;;;;;;;;;;36.90;19.92;99492.91;5063100;28;19931;-83
2022/08/18 11:01:38;;;;;;;;;;;;;;;37.00;19.50;99489.22;5092775;28;20014;-85
2022/08/18 11:04:12;;;;;;;;;;;;;;;36.91;19.40;99488.88;5076308;28;19935;-83
2022/08/18 11:07:04;;;;;;;;;;;;;;;37.45;18.29;99491.31;5084560;28;19942;-84
2022/08/18 11:09:39;;;;;;;;;;;;;;;37.31;18.09;99486.59;5078460;28;19975;-84
2022/08/18 11:12:42;;;;;;;;;;;;;;;37.49;18.11;99494.91;5094418;28;20030;-83
2022/08/18 11:15:18;;;;;;;;;;;;;;;37.98;18.37;99483.63;5126443;28;19927;-83
2022/08/18 11:18:00;;;;;;;;;;;;;;;37.94;17.85;99487.25;5075986;28;20026;-84
2022/08/18 11:20:30;;;;;;;;;;;;;;;38.31;17.63;99498.94;5076231;28;19977;-83
2022/08/18 11:23:00;;;;;;;;;;;;;;;37.90;17.27;99482.88;5075670;28;19927;-86
2022/08/18 11:25:30;;;;;;;;;;;;;;;38.09;17.45;99489.94;5076439;28;19931;-85
2022/08/18 11:27:59;;;;;;;;;;;;;;;37.68;17.56;99483.09;5072406;28;19928;-86
2022/08/18 11:30:31;;;;;;;;;;;;;;;37.23;18.12;99485.88;5099316;28;20305;-86
2022/08/18 11:33:01;;;;;;;;;;;;;;;37.84;18.04;99488.16;5086211;28;19934;-86
2022/08/18 11:35:30;;;;;;;;;;;;;;;38.29;17.94;99490.13;5057028;28;19928;-88
2022/08/18 11:38:04;;;;;;;;;;;;;;;38.19;17.68;99491.84;5092186;28;20034;-87
2022/08/18 11:40:45;;;;;;;;;;;;;;;38.21;18.20;99488.56;5072856;28;19974;-87
2022/08/18 11:43:32;;;;;;;;;;;;;;;38.38;17.89;99479.91;5087785;28;19928;-86
2022/08/18 11:46:11;;;;;;;;;;;;;;;38.64;17.75;99485.25;5088142;28;19938;-87
2022/08/18 11:48:38;;;;;;;;;;;;;;;38.77;17.15;99487.09;5108868;28;20076;-86
2022/08/18 11:51:22;;;;;;;;;;;;;;;38.67;16.97;99484.41;5094790;28;19928;-88
2022/08/18 11:53:52;;;;;;;;;;;;;;;38.28;16.88;99494.94;5107080;28;19934;-89
2022/08/18 11:56:29;;;;;;;;;;;;;;;38.12;16.77;99498.34;5094809;28;19979;-88
2022/08/18 11:59:25;;;;;;;;;;;;;;;38.63;16.58;99481.63;5086659;28;19934;-88
2022/08/18 12:02:15;;;;;;;;;;;;;;;39.32;15.90;99482.22;5110380;28;19927;-87
2022/08/18 12:04:42;;;;;;;;;;;;;;;39.54;15.89;99488.34;5072665;28;19928;-89
2022/08/18 12:07:10;;;;;;;;;;;;;;;39.64;16.04;99478.06;5108248;28;20022;-87
2022/08/18 12:09:42;;;;;;;;;;;;;;;39.25;15.05;99468.25;5101389;28;20425;-88
2022/08/18 12:12:30;;;;;;;;;;;;;;;39.11;15.51;99483.38;5114227;28;20454;-88
2022/08/18 12:15:12;;;;;;;;;;;;;;;39.49;15.52;99483.19;5114274;28;19943;-89
2022/08/18 12:17:50;;;;;;;;;;;;;;;39.79;14.96;99484.28;5106543;28;20441;-87
2022/08/18 12:20:19;;;;;;;;;;;;;;;39.89;14.53;99482.50;5076196;28;19981;-86
2022/08/18 12:22:48;;;;;;;;;;;;;;;39.82;14.43;99470.09;5081341;28;19980;-87
2022/08/18 12:25:16;;;;;;;;;;;;;;;39.46;14.59;99478.41;5103409;28;19935;-87
2022/08/18 12:27:52;;;;;;;;;;;;;;;39.26;14.57;99480.31;5104739;28;19988;-87
2022/08/18 12:30:18;;;;;;;;;;;;;;;39.55;14.73;99475.81;5089667;28;20359;-86
2022/08/18 12:32:46;;;;;;;;;;;;;;;39.97;14.19;99476.28;5106014;28;20390;-87
2022/08/18 12:35:33;;;;;;;;;;;;;;;40.39;13.97;99473.84;5088594;28;20426;-86
2022/08/18 12:38:16;;;;;;;;;;;;;;;40.29;13.50;99472.03;5091898;28;19935;-87
2022/08/18 12:40:43;;;;;;;;;;;;;;;40.25;13.76;99483.41;5084328;28;19935;-88
2022/08/18 12:43:10;;;;;;;;;;;;;;;39.81;13.99;99467.72;5092963;28;19939;-89
2022/08/18 12:45:39;;;;;;;;;;;;;;;39.53;14.52;99469.00;5093005;28;19927;-87
2022/08/18 12:48:07;;;;;;;;;;;;;;;40.17;14.08;99475.50;5079471;28;20034;-87
2022/08/18 12:50:48;;;;;;;;;;;;;;;40.38;14.31;99471.44;5069133;28;19939;-85
2022/08/18 12:53:25;;;;;;;;;;;;;;;41.00;14.10;99455.50;5098043;28;20167;-85
2022/08/18 12:56:11;;;;;;;;;;;;;;;40.85;14.06;99463.53;5099746;28;19927;-86
2022/08/18 12:58:40;;;;;;;;;;;;;;;40.91;14.13;99469.47;5083894;28;19931;-87
2022/08/18 13:01:07;;;;;;;;;;;;;;;41.01;13.70;99464.78;5066643;28;20038;-90
2022/08/18 13:03:34;;;;;;;;;;;;;;;41.05;14.15;99465.50;5085892;28;20023;-87
2022/08/18 13:06:12;;;;;;;;;;;;;;;41.33;14.01;99456.31;5112719;28;20008;-85
2022/08/18 13:08:42;;;;;;;;;;;;;;;41.03;13.83;99465.16;5105949;28;20469;-86
2022/08/18 13:11:17;;;;;;;;;;;;;;;41.14;13.38;99472.16;5108322;28;19928;-86
2022/08/18 13:13:53;;;;;;;;;;;;;;;41.02;13.83;99460.72;5076115;28;19927;-87
2022/08/18 13:16:23;;;;;;;;;;;;;;;41.32;13.85;99466.03;5063692;28;19966;-87
2022/08/18 13:19:11;;;;;;;;;;;;;;;41.50;14.07;99467.63;5096498;28;19970;-87
2022/08/18 13:21:40;;;;;;;;;;;;;;;41.22;13.85;99460.66;5080755;28;19935;-87
2022/08/18 13:24:08;;;;;;;;;;;;;;;40.64;14.00;99458.34;5083013;28;19932;-85
2022/08/18 13:26:43;;;;;;;;;;;;;;;40.38;13.91;99458.09;5075144;28;20401;-87
2022/08/18 13:29:12;;;;;;;;;;;;;;;40.47;13.58;99455.47;5074838;28;19959;-88
2022/08/18 13:31:39;;;;;;;;;;;;;;;40.39;13.83;99467.38;5074497;28;19928;-86
2022/08/18 13:34:21;;;;;;;;;;;;;;;40.72;13.71;99465.47;5092577;28;19928;-87
2022/08/18 13:36:50;;;;;;;;;;;;;;;41.43;13.52;99470.63;5090367;28;20404;-87
2022/08/18 13:39:19;;;;;;;;;;;;;;;42.28;13.55;99467.53;5047166;28;19989;-85
2022/08/18 13:41:53;;;;;;;;;;;;;;;43.05;13.07;99459.16;5082923;28;19971;-85